sensor_id;sensor_type;location;lat;lon;timestamp;temperature;humidity
66610;DHT22;53468;48.276;14.416;2022-12-24T00:05:09;8.50;99.90
66610;DHT22;53468;48.276;14.416;2022-12-24T00:10:43;8.60;99.90
66610;DHT22;53468;48.276;14.416;2022-12-24T00:16:16;8.80;99.90
66610;DHT22;53468;48.276;14.416;2022-12-24T00:21:48;8.90;99.90
66610;DHT22;53468;48.276;14.416;2022-12-24T00:27:23;8.90;99.90
66610;DHT22;53468;48.276;14.416;2022-12-24T00:32:56;8.80;99.90
66610;DHT22;53468;48.276;14.416;2022-12-24T00:38:28;8.90;99.90
66610;DHT22;53468;48.276;14.416;2022-12-24T00:44:05;8.80;99.90
66610;DHT22;53468;48.276;14.416;2022-12-24T00:49:41;8.80;99.90
66610;DHT22;53468;48.276;14.416;2022-12-24T00:55:14;8.80;99.90
66610;DHT22;53468;48.276;14.416;2022-12-24T01:00:49;8.80;99.90
66610;DHT22;53468;48.276;14.416;2022-12-24T01:06:22;8.80;99.90
66610;DHT22;53468;48.276;14.416;2022-12-24T01:11:55;8.80;99.90
66610;DHT22;53468;48.276;14.416;2022-12-24T01:17:30;8.80;99.90
66610;DHT22;53468;48.276;14.416;2022-12-24T01:23:03;8.70;99.90
66610;DHT22;53468;48.276;14.416;2022-12-24T01:28:35;8.70;99.90
66610;DHT22;53468;48.276;14.416;2022-12-24T01:34:13;8.70;99.90
66610;DHT22;53468;48.276;14.416;2022-12-24T01:39:46;8.80;99.90
66610;DHT22;53468;48.276;14.416;2022-12-24T01:45:43;8.80;99.90
66610;DHT22;53468;48.276;14.416;2022-12-24T01:51:22;8.90;99.90
66610;DHT22;53468;48.276;14.416;2022-12-24T01:56:59;8.90;99.90
66610;DHT22;53468;48.276;14.416;2022-12-24T02:02:34;9.00;99.90
66610;DHT22;53468;48.276;14.416;2022-12-24T02:08:08;9.00;99.90
66610;DHT22;53468;48.276;14.416;2022-12-24T02:13:43;9.00;99.90
66610;DHT22;53468;48.276;14.416;2022-12-24T02:19:46;9.10;99.90
66610;DHT22;53468;48.276;14.416;2022-12-24T02:25:35;9.00;99.90
66610;DHT22;53468;48.276;14.416;2022-12-24T02:31:19;9.00;99.90
66610;DHT22;53468;48.276;14.416;2022-12-24T02:37:00;9.00;99.90
66610;DHT22;53468;48.276;14.416;2022-12-24T02:42:39;9.00;99.90
66610;DHT22;53468;48.276;14.416;2022-12-24T02:48:15;9.20;99.90
66610;DHT22;53468;48.276;14.416;2022-12-24T02:53:49;9.20;99.90
66610;DHT22;53468;48.276;14.416;2022-12-24T02:59:46;9.60;99.90
66610;DHT22;53468;48.276;14.416;2022-12-24T03:05:28;9.70;99.90
66610;DHT22;53468;48.276;14.416;2022-12-24T03:11:07;9.60;99.90
66610;DHT22;53468;48.276;14.416;2022-12-24T03:16:44;9.50;99.90
66610;DHT22;53468;48.276;14.416;2022-12-24T03:22:19;9.50;99.90
66610;DHT22;53468;48.276;14.416;2022-12-24T03:27:55;9.40;99.90
66610;DHT22;53468;48.276;14.416;2022-12-24T03:33:30;9.10;99.90
66610;DHT22;53468;48.276;14.416;2022-12-24T03:39:05;9.00;99.90
66610;DHT22;53468;48.276;14.416;2022-12-24T03:44:39;8.90;99.90
66610;DHT22;53468;48.276;14.416;2022-12-24T03:50:12;8.80;99.90
66610;DHT22;53468;48.276;14.416;2022-12-24T03:55:50;8.70;99.90
66610;DHT22;53468;48.276;14.416;2022-12-24T04:01:57;8.70;99.90
66610;DHT22;53468;48.276;14.416;2022-12-24T04:08:14;8.60;99.90
66610;DHT22;53468;48.276;14.416;2022-12-24T04:13:59;8.60;99.90
66610;DHT22;53468;48.276;14.416;2022-12-24T04:19:42;8.60;99.90
66610;DHT22;53468;48.276;14.416;2022-12-24T04:25:16;8.60;99.90
66610;DHT22;53468;48.276;14.416;2022-12-24T04:30:49;8.90;99.90
66610;DHT22;53468;48.276;14.416;2022-12-24T04:36:21;8.90;99.90
66610;DHT22;53468;48.276;14.416;2022-12-24T04:41:54;8.90;99.90
66610;DHT22;53468;48.276;14.416;2022-12-24T04:47:30;8.90;99.90
66610;DHT22;53468;48.276;14.416;2022-12-24T04:53:02;8.80;99.90
66610;DHT22;53468;48.276;14.416;2022-12-24T04:58:34;8.80;99.90
66610;DHT22;53468;48.276;14.416;2022-12-24T05:04:07;8.60;99.90
66610;DHT22;53468;48.276;14.416;2022-12-24T05:09:41;8.50;99.90
66610;DHT22;53468;48.276;14.416;2022-12-24T05:15:13;8.50;99.90
66610;DHT22;53468;48.276;14.416;2022-12-24T05:20:47;8.40;99.90
66610;DHT22;53468;48.276;14.416;2022-12-24T05:26:26;8.40;99.90
66610;DHT22;53468;48.276;14.416;2022-12-24T05:32:00;8.30;99.90
66610;DHT22;53468;48.276;14.416;2022-12-24T05:37:34;8.30;99.90
66610;DHT22;53468;48.276;14.416;2022-12-24T05:43:06;8.20;99.90
66610;DHT22;53468;48.276;14.416;2022-12-24T05:48:39;8.20;99.90
66610;DHT22;53468;48.276;14.416;2022-12-24T05:54:12;8.10;99.90
66610;DHT22;53468;48.276;14.416;2022-12-24T05:59:44;8.10;99.90
66610;DHT22;53468;48.276;14.416;2022-12-24T06:05:18;8.10;99.90
66610;DHT22;53468;48.276;14.416;2022-12-24T06:10:55;8.20;99.90
66610;DHT22;53468;48.276;14.416;2022-12-24T06:16:27;8.20;99.90
66610;DHT22;53468;48.276;14.416;2022-12-24T06:22:00;8.30;99.90
66610;DHT22;53468;48.276;14.416;2022-12-24T06:27:33;8.30;99.90
66610;DHT22;53468;48.276;14.416;2022-12-24T06:33:06;8.30;99.90
66610;DHT22;53468;48.276;14.416;2022-12-24T06:38:38;8.30;99.90
66610;DHT22;53468;48.276;14.416;2022-12-24T06:44:11;8.20;99.90
66610;DHT22;53468;48.276;14.416;2022-12-24T06:49:43;8.20;99.90
66610;DHT22;53468;48.276;14.416;2022-12-24T06:55:16;8.20;99.90
66610;DHT22;53468;48.276;14.416;2022-12-24T07:00:49;8.10;99.90
66610;DHT22;53468;48.276;14.416;2022-12-24T07:06:24;8.20;99.90
66610;DHT22;53468;48.276;14.416;2022-12-24T07:11:57;8.20;99.90
66610;DHT22;53468;48.276;14.416;2022-12-24T07:17:31;8.20;99.90
66610;DHT22;53468;48.276;14.416;2022-12-24T07:23:04;8.20;99.90
66610;DHT22;53468;48.276;14.416;2022-12-24T07:28:36;8.20;99.90
66610;DHT22;53468;48.276;14.416;2022-12-24T07:34:10;8.30;99.90
66610;DHT22;53468;48.276;14.416;2022-12-24T07:39:42;8.30;99.90
66610;DHT22;53468;48.276;14.416;2022-12-24T07:45:14;8.40;99.90
66610;DHT22;53468;48.276;14.416;2022-12-24T07:50:49;8.40;99.90
66610;DHT22;53468;48.276;14.416;2022-12-24T07:56:36;8.50;99.90
66610;DHT22;53468;48.276;14.416;2022-12-24T08:02:10;8.60;99.90
66610;DHT22;53468;48.276;14.416;2022-12-24T08:07:58;8.60;99.90
66610;DHT22;53468;48.276;14.416;2022-12-24T08:13:32;8.70;99.90
66610;DHT22;53468;48.276;14.416;2022-12-24T08:19:05;8.70;99.90
66610;DHT22;53468;48.276;14.416;2022-12-24T08:24:41;8.80;99.90
66610;DHT22;53468;48.276;14.416;2022-12-24T08:30:14;8.90;99.90
66610;DHT22;53468;48.276;14.416;2022-12-24T08:35:47;8.90;99.90
66610;DHT22;53468;48.276;14.416;2022-12-24T08:41:22;9.00;99.90
66610;DHT22;53468;48.276;14.416;2022-12-24T08:46:55;9.00;99.90
66610;DHT22;53468;48.276;14.416;2022-12-24T08:52:27;8.90;99.90
66610;DHT22;53468;48.276;14.416;2022-12-24T08:58:02;8.80;99.90
66610;DHT22;53468;48.276;14.416;2022-12-24T09:03:36;8.80;99.90
66610;DHT22;53468;48.276;14.416;2022-12-24T09:09:08;8.90;99.90
66610;DHT22;53468;48.276;14.416;2022-12-24T09:14:42;8.90;99.90
66610;DHT22;53468;48.276;14.416;2022-12-24T09:20:14;9.00;99.90
66610;DHT22;53468;48.276;14.416;2022-12-24T09:25:46;9.10;99.90
66610;DHT22;53468;48.276;14.416;2022-12-24T09:31:22;9.10;99.90
66610;DHT22;53468;48.276;14.416;2022-12-24T09:36:59;9.50;99.90
66610;DHT22;53468;48.276;14.416;2022-12-24T09:42:41;9.60;99.90
66610;DHT22;53468;48.276;14.416;2022-12-24T09:48:21;9.80;99.90
66610;DHT22;53468;48.276;14.416;2022-12-24T09:53:59;9.70;99.90
66610;DHT22;53468;48.276;14.416;2022-12-24T09:59:40;9.80;99.90
66610;DHT22;53468;48.276;14.416;2022-12-24T10:05:17;9.80;99.90
66610;DHT22;53468;48.276;14.416;2022-12-24T10:10:53;9.90;99.90
66610;DHT22;53468;48.276;14.416;2022-12-24T10:16:43;9.90;99.90
66610;DHT22;53468;48.276;14.416;2022-12-24T10:22:28;9.90;99.90
66610;DHT22;53468;48.276;14.416;2022-12-24T10:28:11;9.80;99.90
66610;DHT22;53468;48.276;14.416;2022-12-24T10:33:48;9.70;99.90
66610;DHT22;53468;48.276;14.416;2022-12-24T10:39:24;9.70;99.90
66610;DHT22;53468;48.276;14.416;2022-12-24T10:45:03;9.60;99.90
66610;DHT22;53468;48.276;14.416;2022-12-24T10:50:41;9.60;99.90
66610;DHT22;53468;48.276;14.416;2022-12-24T10:56:17;9.50;99.90
66610;DHT22;53468;48.276;14.416;2022-12-24T11:01:53;9.50;99.90
66610;DHT22;53468;48.276;14.416;2022-12-24T11:08:15;9.60;99.90
66610;DHT22;53468;48.276;14.416;2022-12-24T11:13:56;9.40;99.90
66610;DHT22;53468;48.276;14.416;2022-12-24T11:19:31;9.40;99.90
66610;DHT22;53468;48.276;14.416;2022-12-24T11:25:06;9.40;99.90
66610;DHT22;53468;48.276;14.416;2022-12-24T11:30:42;9.40;99.90
66610;DHT22;53468;48.276;14.416;2022-12-24T11:36:29;9.40;99.90
66610;DHT22;53468;48.276;14.416;2022-12-24T11:42:01;9.40;99.90
66610;DHT22;53468;48.276;14.416;2022-12-24T11:47:38;9.40;99.90
66610;DHT22;53468;48.276;14.416;2022-12-24T11:53:16;9.50;99.90
66610;DHT22;53468;48.276;14.416;2022-12-24T11:58:54;9.60;99.90
66610;DHT22;53468;48.276;14.416;2022-12-24T12:04:30;9.70;99.90
66610;DHT22;53468;48.276;14.416;2022-12-24T12:10:06;9.80;99.90
66610;DHT22;53468;48.276;14.416;2022-12-24T12:15:47;10.00;99.90
66610;DHT22;53468;48.276;14.416;2022-12-24T12:21:25;10.10;99.90
66610;DHT22;53468;48.276;14.416;2022-12-24T12:27:19;10.30;99.90
66610;DHT22;53468;48.276;14.416;2022-12-24T12:32:59;10.40;99.90
66610;DHT22;53468;48.276;14.416;2022-12-24T12:38:35;10.50;99.90
66610;DHT22;53468;48.276;14.416;2022-12-24T12:44:47;10.50;99.90
66610;DHT22;53468;48.276;14.416;2022-12-24T12:50:25;10.50;99.90
66610;DHT22;53468;48.276;14.416;2022-12-24T12:56:08;10.50;99.90
66610;DHT22;53468;48.276;14.416;2022-12-24T13:01:49;10.40;99.90
66610;DHT22;53468;48.276;14.416;2022-12-24T13:13:58;10.20;99.90
66610;DHT22;53468;48.276;14.416;2022-12-24T13:19:58;10.20;99.90
66610;DHT22;53468;48.276;14.416;2022-12-24T13:25:36;10.10;99.90
66610;DHT22;53468;48.276;14.416;2022-12-24T13:31:25;10.20;99.90
66610;DHT22;53468;48.276;14.416;2022-12-24T13:37:04;10.30;99.90
66610;DHT22;53468;48.276;14.416;2022-12-24T13:42:48;10.30;99.90
66610;DHT22;53468;48.276;14.416;2022-12-24T13:48:31;10.30;99.90
66610;DHT22;53468;48.276;14.416;2022-12-24T13:54:08;10.20;99.90
66610;DHT22;53468;48.276;14.416;2022-12-24T13:59:43;10.20;99.90
66610;DHT22;53468;48.276;14.416;2022-12-24T14:05:21;10.10;99.90
66610;DHT22;53468;48.276;14.416;2022-12-24T14:11:03;10.00;99.90
66610;DHT22;53468;48.276;14.416;2022-12-24T14:16:48;10.00;99.90
66610;DHT22;53468;48.276;14.416;2022-12-24T14:22:27;10.00;99.90
66610;DHT22;53468;48.276;14.416;2022-12-24T14:28:06;9.90;99.90
66610;DHT22;53468;48.276;14.416;2022-12-24T14:33:44;9.70;99.90
66610;DHT22;53468;48.276;14.416;2022-12-24T14:39:24;9.70;99.90
66610;DHT22;53468;48.276;14.416;2022-12-24T14:45:05;9.70;99.90
66610;DHT22;53468;48.276;14.416;2022-12-24T14:51:05;9.50;99.90
66610;DHT22;53468;48.276;14.416;2022-12-24T14:56:40;9.40;99.90
66610;DHT22;53468;48.276;14.416;2022-12-24T15:02:39;9.30;99.90
66610;DHT22;53468;48.276;14.416;2022-12-24T15:08:44;9.10;99.90
66610;DHT22;53468;48.276;14.416;2022-12-24T15:14:41;9.10;99.90
66610;DHT22;53468;48.276;14.416;2022-12-24T15:20:17;8.90;99.90
66610;DHT22;53468;48.276;14.416;2022-12-24T15:26:08;8.80;99.90
66610;DHT22;53468;48.276;14.416;2022-12-24T15:32:10;8.90;99.90
66610;DHT22;53468;48.276;14.416;2022-12-24T15:45:11;8.80;99.90
66610;DHT22;53468;48.276;14.416;2022-12-24T15:58:30;8.80;99.90
66610;DHT22;53468;48.276;14.416;2022-12-24T16:04:21;8.70;99.90
66610;DHT22;53468;48.276;14.416;2022-12-24T16:30:22;8.40;99.90
66610;DHT22;53468;48.276;14.416;2022-12-24T16:36:24;8.30;99.90
66610;DHT22;53468;48.276;14.416;2022-12-24T16:54:16;7.90;99.90
66610;DHT22;53468;48.276;14.416;2022-12-24T17:06:38;7.70;99.90
66610;DHT22;53468;48.276;14.416;2022-12-24T17:19:55;7.70;99.90
66610;DHT22;53468;48.276;14.416;2022-12-24T17:26:32;7.80;99.90
66610;DHT22;53468;48.276;14.416;2022-12-24T17:39:06;7.90;99.90
66610;DHT22;53468;48.276;14.416;2022-12-24T17:45:26;7.80;99.90
66610;DHT22;53468;48.276;14.416;2022-12-24T18:17:10;7.90;99.90
66610;DHT22;53468;48.276;14.416;2022-12-24T18:23:20;7.90;99.90
66610;DHT22;53468;48.276;14.416;2022-12-24T19:14:59;7.30;99.90
66610;DHT22;53468;48.276;14.416;2022-12-24T19:21:23;7.20;99.90
66610;DHT22;53468;48.276;14.416;2022-12-24T19:27:49;7.20;99.90
66610;DHT22;53468;48.276;14.416;2022-12-24T21:05:35;7.20;99.90
66610;DHT22;53468;48.276;14.416;2022-12-24T21:18:29;7.30;99.90
66610;DHT22;53468;48.276;14.416;2022-12-24T21:43:59;7.20;99.90
66610;DHT22;53468;48.276;14.416;2022-12-24T21:56:17;7.00;99.90
66610;DHT22;53468;48.276;14.416;2022-12-24T22:02:13;6.80;99.90
66610;DHT22;53468;48.276;14.416;2022-12-24T22:08:19;6.80;99.90
